createdAt,value
2022-09-28T00:01:19.556Z,78.89
2022-09-28T00:04:25.587Z,78.95
2022-09-28T00:07:32.088Z,78.90
2022-09-28T00:10:38.274Z,78.94
2022-09-28T00:13:43.022Z,79.15
2022-09-28T00:16:49.804Z,79.18
2022-09-28T00:19:58.094Z,79.11
2022-09-28T00:23:04.186Z,79.08
2022-09-28T00:26:10.260Z,79.03
2022-09-28T00:29:19.946Z,79.36
2022-09-28T00:32:41.889Z,79.32
2022-09-28T00:35:56.478Z,79.08
2022-09-28T00:39:08.109Z,79.06
2022-09-28T00:42:24.226Z,79.14
2022-09-28T00:45:31.885Z,79.16
2022-09-28T00:48:51.362Z,79.19
2022-09-28T00:51:59.353Z,79.28
2022-09-28T00:55:19.052Z,79.09
2022-09-28T00:58:33.733Z,79.05
2022-09-28T01:01:46.852Z,79.26
2022-09-28T01:04:58.484Z,79.22
2022-09-28T01:08:07.739Z,79.16
2022-09-28T01:11:13.863Z,79.26
2022-09-28T01:14:19.257Z,79.42
2022-09-28T01:17:32.306Z,79.41
2022-09-28T01:20:55.926Z,79.11
2022-09-28T01:24:23.209Z,79.24
2022-09-28T01:27:34.257Z,79.25
2022-09-28T01:30:47.318Z,79.23
2022-09-28T01:33:57.988Z,79.36
2022-09-28T01:37:11.165Z,79.51
2022-09-28T01:40:18.728Z,79.44
2022-09-28T01:43:28.231Z,79.37
2022-09-28T01:46:39.410Z,79.41
2022-09-28T01:49:50.258Z,79.34
2022-09-28T01:53:00.638Z,79.40
2022-09-28T01:56:12.551Z,79.43
2022-09-28T01:59:21.540Z,79.33
2022-09-28T02:02:33.608Z,79.42
2022-09-28T02:05:43.475Z,79.57
2022-09-28T02:08:55.148Z,79.35
2022-09-28T02:12:07.247Z,79.70
2022-09-28T02:15:19.497Z,79.47
2022-09-28T02:18:26.093Z,79.68
2022-09-28T02:21:39.578Z,79.66
2022-09-28T02:24:55.289Z,79.61
2022-09-28T02:28:03.270Z,79.74
2022-09-28T02:31:09.560Z,79.65
2022-09-28T02:34:15.621Z,79.83
2022-09-28T02:37:21.908Z,79.85
2022-09-28T02:40:30.034Z,79.87
2022-09-28T02:43:50.742Z,79.83
2022-09-28T02:47:05.986Z,79.75
2022-09-28T02:50:20.569Z,79.85
2022-09-28T02:53:46.559Z,79.95
2022-09-28T02:57:03.635Z,79.88
2022-09-28T03:00:16.102Z,80.02
2022-09-28T03:03:30.644Z,79.98
2022-09-28T03:06:42.715Z,80.05
2022-09-28T03:09:56.934Z,80.20
2022-09-28T03:13:05.078Z,80.18
2022-09-28T03:16:16.890Z,80.06
2022-09-28T03:19:28.233Z,80.06
2022-09-28T03:22:34.286Z,79.92
2022-09-28T03:25:40.867Z,80.11
2022-09-28T03:28:46.910Z,80.03
2022-09-28T03:31:55.091Z,80.17
2022-09-28T03:35:01.290Z,79.90
2022-09-28T03:38:07.390Z,79.89
2022-09-28T03:41:13.583Z,79.99
2022-09-28T03:44:18.058Z,79.81
2022-09-28T03:47:24.142Z,80.06
2022-09-28T03:50:30.280Z,80.18
2022-09-28T03:53:36.752Z,80.23
2022-09-28T03:56:42.977Z,80.22
2022-09-28T03:59:47.438Z,80.17
2022-09-28T04:02:54.157Z,80.28
2022-09-28T04:06:00.468Z,80.09
2022-09-28T04:09:04.920Z,80.05
2022-09-28T04:12:11.110Z,80.12
2022-09-28T04:15:15.585Z,80.02
2022-09-28T04:18:22.136Z,79.95
2022-09-28T04:21:28.634Z,79.98
2022-09-28T04:24:34.722Z,80.00
2022-09-28T04:28:12.976Z,79.81
2022-09-28T04:31:21.739Z,79.94
2022-09-28T04:34:33.140Z,80.01
2022-09-28T04:37:41.584Z,80.00
2022-09-28T04:40:49.968Z,79.92
2022-09-28T04:43:56.286Z,79.93
2022-09-28T04:47:05.182Z,80.09
2022-09-28T04:50:12.413Z,79.79
2022-09-28T04:53:18.559Z,80.00
2022-09-28T04:56:24.630Z,80.03
2022-09-28T04:59:30.835Z,80.10
2022-09-28T05:02:37.023Z,80.16
2022-09-28T05:05:49.074Z,80.31
2022-09-28T05:08:57.638Z,80.20
2022-09-28T05:12:04.461Z,80.36
2022-09-28T05:15:11.866Z,80.39
2022-09-28T05:18:18.022Z,80.35
2022-09-28T05:21:24.881Z,80.43
2022-09-28T05:24:31.189Z,80.32
2022-09-28T05:27:35.683Z,80.41
2022-09-28T05:30:41.839Z,80.49
2022-09-28T05:33:47.989Z,80.61
2022-09-28T05:36:54.093Z,80.45
2022-09-28T05:40:00.219Z,80.57
2022-09-28T05:43:06.385Z,80.66
2022-09-28T05:46:12.685Z,80.61
2022-09-28T05:49:17.451Z,80.34
2022-09-28T05:52:23.862Z,80.69
2022-09-28T05:55:30.219Z,80.53
2022-09-28T05:58:36.436Z,80.53
2022-09-28T06:01:42.609Z,80.53
2022-09-28T06:04:49.572Z,80.49
2022-09-28T06:07:56.339Z,80.66
2022-09-28T06:11:04.045Z,80.74
2022-09-28T06:14:10.540Z,80.83
2022-09-28T06:17:16.747Z,80.79
2022-09-28T06:20:23.043Z,80.94
2022-09-28T06:23:27.596Z,81.06
2022-09-28T06:26:33.920Z,81.29
2022-09-28T06:29:39.953Z,81.17
2022-09-28T06:32:46.380Z,80.99
2022-09-28T06:35:52.510Z,81.05
2022-09-28T06:38:58.621Z,80.95
2022-09-28T06:42:05.196Z,81.08
2022-09-28T06:45:12.746Z,81.12
2022-09-28T06:48:18.898Z,81.15
2022-09-28T06:51:25.229Z,81.02
2022-09-28T06:54:29.774Z,81.26
2022-09-28T06:57:35.829Z,81.13
2022-09-28T07:00:42.753Z,80.94
2022-09-28T07:03:52.488Z,81.13
2022-09-28T07:07:01.139Z,81.18
2022-09-28T07:10:10.355Z,80.94
2022-09-28T07:13:44.555Z,81.15
2022-09-28T07:17:09.680Z,81.12
2022-09-28T07:20:18.672Z,81.20
2022-09-28T07:23:26.570Z,81.38
2022-09-28T07:26:33.899Z,81.49
2022-09-28T07:29:40.015Z,81.41
2022-09-28T07:32:48.516Z,81.29
2022-09-28T07:35:56.452Z,81.25
2022-09-28T07:39:02.656Z,81.40
2022-09-28T07:42:07.582Z,81.60
2022-09-28T07:45:13.935Z,81.67
2022-09-28T07:48:20.514Z,81.91
2022-09-28T07:51:26.608Z,81.79
2022-09-28T07:54:32.760Z,81.84
2022-09-28T07:57:40.013Z,81.93
2022-09-28T08:00:48.573Z,81.98
2022-09-28T08:03:56.452Z,81.85
2022-09-28T08:07:03.225Z,81.47
2022-09-28T08:10:10.673Z,81.51
2022-09-28T08:13:18.743Z,80.93
2022-09-28T08:16:25.560Z,80.55
2022-09-28T08:19:52.447Z,80.96
2022-09-28T08:23:03.767Z,80.93
2022-09-28T08:26:15.190Z,80.76
2022-09-28T08:29:21.663Z,80.25
2022-09-28T08:32:26.402Z,80.22
2022-09-28T08:35:32.582Z,80.12
2022-09-28T08:38:37.060Z,79.81
2022-09-28T08:41:50.933Z,79.78
2022-09-28T08:45:00.331Z,80.16
2022-09-28T08:48:30.781Z,80.24
2022-09-28T08:51:41.851Z,79.71
2022-09-28T08:54:53.227Z,79.80
2022-09-28T08:58:04.295Z,79.87
2022-09-28T09:01:16.706Z,79.44
2022-09-28T09:04:22.998Z,79.36
2022-09-28T09:07:41.259Z,79.20
2022-09-28T09:10:53.551Z,78.78
2022-09-28T09:14:35.146Z,78.95
2022-09-28T09:17:51.185Z,77.93
2022-09-28T09:21:02.425Z,77.80
2022-09-28T09:24:24.941Z,77.57
2022-09-28T09:27:43.701Z,77.36
2022-09-28T09:31:00.898Z,76.94
2022-09-28T09:34:41.059Z,76.39
2022-09-28T09:38:00.734Z,76.57
2022-09-28T09:41:17.848Z,76.64
2022-09-28T09:44:46.469Z,76.21
2022-09-28T09:47:57.699Z,75.80
2022-09-28T09:51:14.436Z,75.37
2022-09-28T09:54:28.469Z,74.89
2022-09-28T09:57:41.994Z,74.72
2022-09-28T10:00:51.694Z,74.76
2022-09-28T10:04:00.178Z,74.47
2022-09-28T10:07:10.746Z,74.21
2022-09-28T10:10:21.703Z,74.31
2022-09-28T10:13:29.337Z,74.22
2022-09-28T10:16:37.243Z,74.22
2022-09-28T10:19:43.988Z,74.01
2022-09-28T10:22:51.318Z,73.89
2022-09-28T10:26:01.866Z,73.67
2022-09-28T10:29:14.893Z,73.53
2022-09-28T10:32:26.513Z,73.57
2022-09-28T10:35:42.289Z,72.92
2022-09-28T10:38:50.774Z,72.72
2022-09-28T10:41:58.794Z,72.47
2022-09-28T10:45:20.981Z,72.17
2022-09-28T10:48:28.408Z,72.34
2022-09-28T10:51:49.758Z,72.44
2022-09-28T10:54:57.103Z,72.17
2022-09-28T10:58:18.913Z,71.66
2022-09-28T11:01:28.617Z,71.37
2022-09-28T11:04:41.438Z,71.55
2022-09-28T11:07:52.016Z,71.23
2022-09-28T11:11:10.754Z,70.87
2022-09-28T11:14:27.438Z,70.79
2022-09-28T11:17:38.792Z,70.63
2022-09-28T11:20:45.606Z,70.48
2022-09-28T11:24:06.022Z,70.77
2022-09-28T11:27:23.724Z,70.97
2022-09-28T11:30:32.976Z,70.43
2022-09-28T11:33:41.463Z,70.29
2022-09-28T11:37:08.366Z,69.85
2022-09-28T11:40:29.131Z,69.65
2022-09-28T11:43:49.429Z,69.12
2022-09-28T11:47:05.503Z,69.20
2022-09-28T11:50:24.448Z,68.63
2022-09-28T11:53:38.260Z,68.57
2022-09-28T11:56:48.995Z,68.32
2022-09-28T12:00:03.070Z,67.63
2022-09-28T12:03:15.491Z,67.57
2022-09-28T12:06:28.764Z,67.34
2022-09-28T12:09:39.735Z,67.00
2022-09-28T12:12:51.154Z,67.15
2022-09-28T12:16:27.577Z,66.97
2022-09-28T12:19:33.482Z,66.79
2022-09-28T12:22:44.497Z,66.61
2022-09-28T12:25:54.958Z,66.28
2022-09-28T12:29:06.650Z,66.02
2022-09-28T12:32:24.962Z,65.90
2022-09-28T12:35:42.263Z,65.61
2022-09-28T12:39:18.012Z,65.15
2022-09-28T12:42:53.220Z,64.58
2022-09-28T12:46:14.323Z,64.33
2022-09-28T12:50:37.162Z,64.14
2022-09-28T12:53:41.681Z,63.66
2022-09-28T12:57:00.976Z,63.55
2022-09-28T13:00:11.853Z,63.14
2022-09-28T13:03:36.362Z,63.39
2022-09-28T13:06:55.062Z,62.84
2022-09-28T13:10:14.570Z,63.00
2022-09-28T13:13:38.305Z,62.87
2022-09-28T13:16:56.167Z,62.64
2022-09-28T13:20:18.951Z,62.21
2022-09-28T13:23:28.940Z,62.45
2022-09-28T13:26:39.594Z,61.98
2022-09-28T13:29:46.351Z,61.83
2022-09-28T13:32:54.363Z,61.87
2022-09-28T13:36:03.438Z,61.46
2022-09-28T13:39:56.701Z,61.36
2022-09-28T13:43:23.271Z,60.67
2022-09-28T13:46:41.085Z,60.63
2022-09-28T13:49:58.010Z,60.66
2022-09-28T13:53:16.707Z,60.33
2022-09-28T13:56:36.122Z,60.49
2022-09-28T13:59:51.257Z,59.89
2022-09-28T14:03:05.069Z,60.01
2022-09-28T14:06:25.579Z,60.14
2022-09-28T14:09:45.776Z,60.09
2022-09-28T14:12:52.634Z,59.96
2022-09-28T14:16:26.910Z,59.77
2022-09-28T14:19:35.302Z,59.48
2022-09-28T14:22:53.965Z,59.70
2022-09-28T14:26:18.408Z,59.90
2022-09-28T14:29:30.144Z,59.82
2022-09-28T14:32:37.738Z,59.91
2022-09-28T14:35:48.313Z,59.87
2022-09-28T14:39:13.227Z,59.76
2022-09-28T14:42:23.194Z,59.78
2022-09-28T14:45:44.603Z,59.82
2022-09-28T14:48:52.775Z,59.64
2022-09-28T14:52:04.938Z,59.90
2022-09-28T14:55:30.613Z,60.00
2022-09-28T14:58:39.639Z,59.93
2022-09-28T15:01:51.846Z,59.96
2022-09-28T15:05:02.039Z,60.19
2022-09-28T15:08:08.343Z,60.11
2022-09-28T15:11:20.291Z,60.32
2022-09-28T15:14:28.102Z,60.60
2022-09-28T15:17:39.954Z,60.59
2022-09-28T15:20:49.834Z,61.04
2022-09-28T15:23:55.941Z,61.17
2022-09-28T15:27:03.142Z,61.39
2022-09-28T15:30:24.203Z,61.23
2022-09-28T15:33:49.121Z,61.55
2022-09-28T15:36:56.450Z,61.90
2022-09-28T15:40:04.242Z,61.88
2022-09-28T15:43:24.940Z,62.20
2022-09-28T15:46:31.834Z,62.23
2022-09-28T15:49:43.137Z,62.38
2022-09-28T15:52:57.551Z,62.67
2022-09-28T15:56:10.327Z,62.68
2022-09-28T15:59:26.718Z,62.88
2022-09-28T16:02:33.077Z,62.87
2022-09-28T16:05:47.253Z,63.00
2022-09-28T16:08:53.852Z,62.80
2022-09-28T16:12:00.264Z,62.86
2022-09-28T16:15:20.474Z,62.67
2022-09-28T16:18:27.972Z,62.75
2022-09-28T16:21:44.817Z,62.56
2022-09-28T16:24:58.266Z,62.65
2022-09-28T16:28:05.414Z,62.53
2022-09-28T16:31:28.472Z,62.69
2022-09-28T16:34:34.590Z,62.40
2022-09-28T16:37:42.799Z,62.49
2022-09-28T16:40:50.689Z,62.68
2022-09-28T16:44:00.953Z,62.93
2022-09-28T16:47:07.701Z,63.02
2022-09-28T16:50:17.460Z,63.09
2022-09-28T16:53:41.239Z,63.09
2022-09-28T16:56:47.470Z,63.04
2022-09-28T16:59:53.365Z,63.04
2022-09-28T17:02:59.593Z,63.13
2022-09-28T17:06:07.719Z,63.14
2022-09-28T17:09:15.207Z,63.38
2022-09-28T17:12:24.990Z,63.62
2022-09-28T17:15:31.179Z,63.90
2022-09-28T17:18:39.204Z,63.77
2022-09-28T17:21:45.377Z,64.07
2022-09-28T17:24:50.192Z,64.19
2022-09-28T17:27:58.398Z,64.37
2022-09-28T17:31:05.801Z,64.49
2022-09-28T17:34:12.857Z,64.43
2022-09-28T17:37:18.978Z,64.33
2022-09-28T17:40:24.168Z,64.22
2022-09-28T17:43:30.344Z,64.40
2022-09-28T17:46:35.872Z,64.59
2022-09-28T17:49:45.841Z,64.62
2022-09-28T17:52:53.454Z,64.74
2022-09-28T17:55:59.563Z,64.88
2022-09-28T17:59:05.082Z,64.80
2022-09-28T18:02:12.755Z,64.85
2022-09-28T18:05:19.885Z,64.96
2022-09-28T18:08:26.176Z,65.04
2022-09-28T18:11:32.834Z,64.98
2022-09-28T18:14:40.191Z,64.95
2022-09-28T18:17:46.347Z,65.25
2022-09-28T18:20:50.790Z,65.26
2022-09-28T18:23:56.543Z,65.46
2022-09-28T18:27:02.500Z,65.58
2022-09-28T18:30:10.342Z,65.55
2022-09-28T18:33:16.610Z,65.83
2022-09-28T18:36:22.365Z,65.95
2022-09-28T18:39:28.518Z,65.97
2022-09-28T18:42:35.771Z,65.97
2022-09-28T18:45:42.227Z,66.25
2022-09-28T18:48:48.582Z,66.42
2022-09-28T18:51:54.432Z,66.41
2022-09-28T18:55:00.288Z,66.59
2022-09-28T18:58:06.035Z,66.51
2022-09-28T19:01:32.262Z,66.62
2022-09-28T19:04:38.898Z,66.74
2022-09-28T19:07:45.263Z,66.75
2022-09-28T19:10:51.523Z,66.90
2022-09-28T19:13:58.498Z,67.00
2022-09-28T19:17:04.749Z,67.07
2022-09-28T19:20:11.798Z,67.16
2022-09-28T19:23:18.018Z,67.27
2022-09-28T19:26:26.209Z,67.21
2022-09-28T19:29:32.550Z,67.36
2022-09-28T19:32:39.101Z,67.30
2022-09-28T19:35:45.367Z,67.28
2022-09-28T19:38:52.859Z,67.37
2022-09-28T19:41:59.955Z,67.53
2022-09-28T19:45:07.638Z,67.31
2022-09-28T19:48:13.887Z,67.44
2022-09-28T19:51:20.245Z,67.45
2022-09-28T19:54:32.051Z,67.48
2022-09-28T19:57:40.602Z,67.45
2022-09-28T20:00:46.859Z,67.55
2022-09-28T20:03:53.184Z,67.67
2022-09-28T20:06:59.458Z,67.66
2022-09-28T20:10:06.280Z,67.72
2022-09-28T20:13:12.617Z,67.93
2022-09-28T20:16:24.525Z,68.26
2022-09-28T20:19:31.020Z,68.24
2022-09-28T20:22:37.361Z,68.24
2022-09-28T20:25:43.605Z,68.31
2022-09-28T20:28:50.040Z,68.26
2022-09-28T20:31:56.786Z,68.41
2022-09-28T20:35:03.050Z,68.54
2022-09-28T20:38:09.317Z,68.59
2022-09-28T20:41:17.750Z,68.62
2022-09-28T20:44:24.073Z,68.86
2022-09-28T20:47:30.392Z,68.92
2022-09-28T20:50:37.128Z,69.08
2022-09-28T20:53:44.888Z,69.08
2022-09-28T20:56:51.159Z,69.16
2022-09-28T20:59:57.818Z,69.20
2022-09-28T21:03:04.101Z,69.33
2022-09-28T21:06:12.428Z,69.25
2022-09-28T21:09:19.104Z,69.36
2022-09-28T21:12:26.182Z,69.56
2022-09-28T21:15:32.520Z,69.69
2022-09-28T21:18:38.778Z,69.80
2022-09-28T21:21:44.966Z,69.74
2022-09-28T21:24:49.529Z,70.02
2022-09-28T21:27:56.674Z,70.13
2022-09-28T21:31:03.824Z,70.22
2022-09-28T21:34:13.317Z,70.10
2022-09-28T21:37:19.561Z,70.43
2022-09-28T21:40:24.647Z,70.47
2022-09-28T21:43:32.482Z,70.54
2022-09-28T21:46:39.797Z,70.60
2022-09-28T21:49:46.259Z,70.82
2022-09-28T21:52:53.437Z,70.71
2022-09-28T21:56:00.741Z,70.72
2022-09-28T21:59:06.971Z,70.63
2022-09-28T22:02:13.639Z,70.81
2022-09-28T22:05:21.080Z,71.14
2022-09-28T22:08:27.563Z,71.19
2022-09-28T22:11:34.160Z,71.38
2022-09-28T22:14:40.463Z,71.37
2022-09-28T22:17:46.780Z,71.43
2022-09-28T22:21:01.531Z,71.55
2022-09-28T22:24:09.039Z,71.60
2022-09-28T22:27:15.815Z,71.70
2022-09-28T22:30:22.037Z,71.73
2022-09-28T22:33:28.910Z,71.81
2022-09-28T22:36:35.844Z,71.91
2022-09-28T22:39:42.126Z,71.99
2022-09-28T22:42:48.352Z,72.16
2022-09-28T22:46:04.756Z,72.15
2022-09-28T22:49:13.202Z,72.14
2022-09-28T22:52:19.413Z,72.21
2022-09-28T22:55:24.066Z,72.17
2022-09-28T22:58:30.757Z,72.41
2022-09-28T23:01:37.431Z,72.46
2022-09-28T23:04:43.637Z,72.61
2022-09-28T23:07:48.466Z,72.61
2022-09-28T23:10:55.382Z,72.76
2022-09-28T23:14:02.766Z,72.69
2022-09-28T23:17:09.003Z,72.85
2022-09-28T23:20:15.356Z,73.10
2022-09-28T23:23:21.587Z,73.19
2022-09-28T23:26:30.454Z,73.17
2022-09-28T23:29:36.726Z,73.18
2022-09-28T23:32:43.188Z,73.35
2022-09-28T23:35:49.521Z,73.55
2022-09-28T23:38:56.257Z,73.60
2022-09-28T23:42:02.830Z,73.85
2022-09-28T23:45:10.831Z,73.74
2022-09-28T23:48:17.170Z,73.69
2022-09-28T23:51:23.490Z,73.96
2022-09-28T23:54:29.786Z,73.83
2022-09-28T23:57:36.199Z,74.19
